Pagrindinis puslapis
METAR-TAF:

METAR-TAF

Oro uostai :

Biak, Indonezija

platuma: 01-11S, ilguma: 136-07E, Aukštis: 11 m

Dabartinis oras

Ataskaita buvo paskelbta 49 minutes, ne 09:30 UTC
Vėjas 3 kt iš Šiaurės/Šiaurės Rytų, svyruoja nuo Šiaurės/Šiaurės Rytų ir Vakarų/Pietvakarių
Temperatūra 28°C
Drėgmė 89%
Slėgis 1009 hPa
Matomumas 10 km arba daugiau
Mažai debesys ne aukštis 1400 ft
Išsisklaidę debesys ne aukštis 10000 ft

METAR: WABB 220930Z 02003KT 020V250 9999 FEW014 SCT100 28/26 Q1009 NOSIG

Laikas: 17:19 (10:19 UTC)

Prognozė

Ataskaita buvo paskelbta 5 valandos ir 19 minutes, ne 05:00 UTC
Prognozė galioja nuo 22 metu 06 UTC su 23 metu 12 UTC
Vėjas 7 kt iš Rytų
Matomumas 10 km arba daugiau
Išsisklaidę debesys ne aukštis 1500 ft
Tikimybė 30% :
Laikinai
nuo 22 metu 06 UTC su 22 metu 08 UTC
lietus,

TAF: WABB 220500Z 2206/2312 10007KT 9999 SCT015 PROB30 TEMPO 2206/2208 RA

Orai ataskaitas ir orų prognozės (METAR, TAF).

turimą stotys yra geltonos ir raudonos taškus žemėlapyje.

Perkelti pele per norėdami pamatyti stoties vardą.

Tada spustelėkite, norėdami matyti oro stebėjimo ir prognozės.

Norėdami pakeisti žemėlapį: spustelėkite ant žalios mygtukų su juodo kryžiaus žemyn,; žalią mygtuką su brūkšneliu, jei norite nutolinti; arba žalių rodyklių gretimoms žemėlapius.


METAR-TAF: